Kazime Ana — TCPT8 — position and weather

sailwx.info

Track history (hours):
 
Tides and Currents Weather Stations Pressure Air Temp Water Temp Dewpoint Dewpoint Depression Visibility Wind Speed Wind Dir Waves Ship Positions

Kazime Ana

Last reported at 2018-Apr-26 21:00 UTC. Time now 2018-Apr-26 21:20 UTC.
Position N 42°46' E 028°56'.

Length 115 m; draft 6.7 m.

Type: Cargo ship. MMSI: 271001019.

Date/timePositionNaut miles runAvg speedWind from/ knotsBaromVisibWave heightAir tempDewpointWater temp
2018-Apr-26 21:00N 42°46' E 028°56'510.1
2018-Apr-26 20:30N 42°51' E 028°55'5 9.9
2018-Apr-26 20:00N 42°55' E 028°55'5 9.8
2018-Apr-26 19:30N 43°00' E 028°54'5 9.6
2018-Apr-26 18:59N 43°05' E 028°54'5 9.7
2018-Apr-26 18:30N 43°10' E 028°53'5 9.9
2018-Apr-26 18:00N 43°15' E 028°53'510.0
2018-Apr-26 17:30N 43°20' E 028°52'510.1
2018-Apr-26 17:00N 43°25' E 028°52'510.1
2018-Apr-26 16:30N 43°30' E 028°51'510.3
2018-Apr-26 16:00N 43°35' E 028°50'510.3
2018-Apr-26 15:31N 43°40' E 028°50'510.4
2018-Apr-26 15:00N 43°45' E 028°49'510.2
2018-Apr-26 14:30N 43°51' E 028°48'510.1
2018-Apr-26 14:00N 43°56' E 028°48'5 9.7
2018-Apr-26 13:30N 44°00' E 028°47'5 9.8
2018-Apr-26 13:00N 44°05' E 028°43'3 6.3
2018-Apr-26 12:30N 44°07' E 028°40'1 2.0
2018-Apr-26 11:58N 44°06' E 028°39'0 0.0
2018-Apr-26 11:28N 44°06' E 028°39'0 0.0
2018-Apr-26 10:58N 44°06' E 028°39'0 0.0
2018-Apr-26 10:28N 44°06' E 028°39'0 0.0
2018-Apr-26 09:58N 44°06' E 028°39'0 0.0
2018-Apr-26 09:28N 44°06' E 028°39'0 0.0
2018-Apr-26 08:58N 44°06' E 028°39'0 0.0
2018-Apr-26 08:28N 44°06' E 028°39'0 0.0
2018-Apr-26 07:58N 44°06' E 028°39'0 0.0
2018-Apr-26 07:28N 44°06' E 028°39'0 0.0
2018-Apr-26 06:58N 44°06' E 028°39'0 0.0
2018-Apr-26 06:28N 44°06' E 028°39'0 0.0
2018-Apr-26 05:58N 44°06' E 028°39'0 0.0
2018-Apr-26 05:28N 44°06' E 028°39'0 0.0
2018-Apr-26 04:58N 44°06' E 028°39'0 0.0
2018-Apr-26 04:28N 44°06' E 028°39'0 0.0
2018-Apr-26 03:58N 44°06' E 028°39'0 0.0
2018-Apr-26 03:28N 44°06' E 028°39'0 0.0
2018-Apr-26 02:58N 44°06' E 028°39'0 0.0
2018-Apr-26 02:28N 44°06' E 028°39'0 0.0
2018-Apr-26 01:58N 44°06' E 028°39'0 0.0
2018-Apr-26 01:28N 44°06' E 028°39'0 0.0
2018-Apr-26 00:58N 44°06' E 028°39'0 0.0
2018-Apr-26 00:28N 44°06' E 028°39'0 0.0
2018-Apr-25 23:58N 44°06' E 028°39'0 0.0
2018-Apr-25 23:28N 44°06' E 028°39'0 0.0
2018-Apr-25 22:58N 44°06' E 028°39'0 0.0
2018-Apr-25 22:28N 44°06' E 028°39'0 0.0
2018-Apr-25 21:58N 44°06' E 028°39'0 0.0
2018-Apr-25 21:28N 44°06' E 028°39'0 0.0
2018-Apr-25 20:58N 44°06' E 028°39'0 0.0
2018-Apr-25 20:28N 44°06' E 028°39'0 0.0
2018-Apr-25 19:58N 44°06' E 028°39'0 0.0
2018-Apr-25 19:28N 44°06' E 028°39'0 0.0
2018-Apr-25 18:58N 44°06' E 028°39'0 0.0
2018-Apr-25 18:25N 44°06' E 028°39'0 0.0
2018-Apr-25 17:58N 44°06' E 028°39'0 0.0
2018-Apr-25 17:28N 44°06' E 028°39'0 0.0
2018-Apr-25 16:58N 44°06' E 028°39'0 0.0
2018-Apr-25 16:28N 44°06' E 028°39'0 0.0
2018-Apr-25 15:58N 44°06' E 028°39'0 0.0
2018-Apr-25 15:28N 44°06' E 028°39'0 0.0
2018-Apr-25 14:58N 44°06' E 028°39'0 0.0
2018-Apr-25 14:28N 44°06' E 028°39'0 0.0
2018-Apr-25 13:58N 44°06' E 028°39'0 0.0
2018-Apr-25 13:28N 44°06' E 028°39'0 0.0
2018-Apr-25 12:58N 44°06' E 028°39'0 0.0
2018-Apr-25 12:28N 44°06' E 028°39'0 0.0
2018-Apr-25 11:58N 44°06' E 028°39'0 0.0
2018-Apr-25 11:28N 44°06' E 028°39'0 0.0
2018-Apr-25 10:58N 44°06' E 028°39'0 0.0
2018-Apr-25 10:28N 44°06' E 028°39'0 0.0
2018-Apr-25 09:58N 44°06' E 028°39'0 0.0
2018-Apr-25 09:28N 44°06' E 028°39'0 0.0
2018-Apr-25 08:58N 44°06' E 028°39'0 0.0
2018-Apr-25 08:28N 44°06' E 028°39'0 0.0
2018-Apr-25 07:58N 44°06' E 028°39'0 0.0
2018-Apr-25 07:28N 44°06' E 028°39'0 0.0
2018-Apr-25 06:58N 44°06' E 028°39'0 0.0
2018-Apr-25 06:28N 44°06' E 028°39'0 0.0
2018-Apr-25 05:58N 44°06' E 028°39'0 0.0
2018-Apr-25 05:28N 44°06' E 028°39'0 0.0
2018-Apr-25 04:58N 44°06' E 028°39'0 0.0
2018-Apr-25 04:28N 44°06' E 028°39'0 0.0
2018-Apr-25 03:58N 44°06' E 028°39'0 0.0
2018-Apr-25 03:28N 44°06' E 028°39'0 0.0
2018-Apr-25 02:58N 44°06' E 028°39'0 0.1
2018-Apr-25 02:28N 44°06' E 028°39'0 0.1
2018-Apr-25 01:58N 44°06' E 028°39'0 0.0
2018-Apr-25 01:28N 44°06' E 028°39'0 0.0
2018-Apr-25 00:58N 44°06' E 028°39'0 0.0
2018-Apr-25 00:28N 44°06' E 028°39'0 0.0
2018-Apr-24 23:58N 44°06' E 028°39'0 0.0
2018-Apr-24 23:28N 44°06' E 028°39'0 0.0
2018-Apr-24 22:58N 44°06' E 028°39'0 0.0
2018-Apr-24 22:28N 44°06' E 028°39'0 0.0
2018-Apr-24 21:55N 44°06' E 028°39'0 0.0
2018-Apr-24 21:28N 44°06' E 028°39'0 0.0
2018-Apr-24 20:58N 44°06' E 028°39'0 0.0
2018-Apr-24 20:28N 44°06' E 028°39'0 0.0
2018-Apr-24 19:58N 44°06' E 028°39'0 0.0
2018-Apr-24 19:28N 44°06' E 028°39'0 0.0
2018-Apr-24 18:58N 44°06' E 028°39'0 0.0
2018-Apr-24 18:28N 44°06' E 028°39'0 0.0
2018-Apr-24 17:58N 44°06' E 028°39'0 0.0
2018-Apr-24 17:28N 44°06' E 028°39'0 0.0
2018-Apr-24 16:58N 44°06' E 028°39'0 0.0
2018-Apr-24 16:28N 44°06' E 028°39'0 0.0
2018-Apr-24 15:58N 44°06' E 028°39'0 0.0
2018-Apr-24 15:28N 44°06' E 028°39'0 0.0
2018-Apr-24 14:58N 44°06' E 028°39'0 0.0
2018-Apr-24 14:28N 44°06' E 028°39'0 0.0
2018-Apr-24 13:58N 44°06' E 028°39'0 0.0
2018-Apr-24 13:28N 44°06' E 028°39'0 0.0
2018-Apr-24 12:58N 44°06' E 028°39'0 0.0
2018-Apr-24 12:28N 44°06' E 028°39'0 0.0
2018-Apr-24 11:58N 44°06' E 028°39'0 0.0
2018-Apr-24 11:28N 44°06' E 028°39'0 0.0
2018-Apr-24 10:58N 44°06' E 028°39'0 0.0
2018-Apr-24 10:28N 44°06' E 028°39'0 0.0
2018-Apr-24 09:58N 44°06' E 028°39'0 0.0
2018-Apr-24 09:28N 44°06' E 028°39'0 0.0
2018-Apr-24 08:58N 44°06' E 028°39'0 0.0
2018-Apr-24 08:28N 44°06' E 028°39'0 0.0
2018-Apr-24 07:58N 44°06' E 028°39'0 0.0
2018-Apr-24 07:28N 44°06' E 028°39'0 0.0
2018-Apr-24 06:58N 44°06' E 028°39'0 0.0
2018-Apr-24 06:28N 44°06' E 028°39'0 0.0
2018-Apr-24 05:58N 44°06' E 028°39'0 0.0
2018-Apr-24 05:30N 44°06' E 028°39'0 0.0
2018-Apr-24 05:01N 44°06' E 028°39'0 0.0
2018-Apr-24 04:31N 44°06' E 028°39'0 0.5
2018-Apr-24 04:00N 44°06' E 028°39'2 3.8
2018-Apr-24 03:30N 44°06' E 028°41'2 3.2
2018-Apr-24 03:00N 44°06' E 028°44'1 2.8
2018-Apr-24 02:31N 44°08' E 028°44'2 3.2
2018-Apr-24 01:58N 44°09' E 028°45'0 0.0
2018-Apr-24 01:28N 44°09' E 028°45'0 0.0
2018-Apr-24 00:58N 44°09' E 028°45'0 0.0
2018-Apr-24 00:28N 44°09' E 028°45'0 0.0
2018-Apr-23 23:58N 44°09' E 028°45'0 0.0
2018-Apr-23 23:28N 44°09' E 028°45'0 0.0
2018-Apr-23 22:58N 44°09' E 028°45'0 0.0
2018-Apr-23 22:28N 44°09' E 028°45'0 0.0
2018-Apr-23 21:58N 44°09' E 028°45'0 0.0
2018-Apr-23 21:28N 44°09' E 028°45'0 0.0
2018-Apr-23 20:58N 44°09' E 028°45'0 0.0
2018-Apr-23 20:28N 44°09' E 028°45'0 0.0
2018-Apr-23 19:58N 44°09' E 028°45'0 0.0
2018-Apr-23 19:28N 44°09' E 028°45'0 0.0
2018-Apr-23 18:58N 44°09' E 028°45'0 0.0
2018-Apr-23 18:28N 44°09' E 028°45'0 0.0
2018-Apr-23 17:58N 44°09' E 028°45'0 0.0
2018-Apr-23 17:28N 44°09' E 028°45'0 0.0
2018-Apr-23 16:58N 44°09' E 028°45'0 0.0
2018-Apr-23 16:28N 44°09' E 028°45'0 0.0
2018-Apr-23 15:58N 44°09' E 028°45'0 0.0
2018-Apr-23 15:31N 44°09' E 028°45'2 4.0
2018-Apr-23 15:01N 44°08' E 028°46'611.6
2018-Apr-23 14:31N 44°02' E 028°49'611.2
2018-Apr-23 14:00N 43°57' E 028°51'611.6
2018-Apr-23 13:30N 43°51' E 028°52'611.8
2018-Apr-23 13:01N 43°45' E 028°53'611.8
2018-Apr-23 12:30N 43°39' E 028°53'611.7
2018-Apr-23 12:01N 43°34' E 028°54'611.7
2018-Apr-23 11:30N 43°28' E 028°55'611.7
2018-Apr-23 11:01N 43°22' E 028°55'611.4
2018-Apr-23 10:30N 43°16' E 028°56'611.2
2018-Apr-23 09:59N 43°10' E 028°57'511.2
2018-Apr-23 09:30N 43°05' E 028°58'611.5
2018-Apr-23 09:00N 42°59' E 028°59'611.6
2018-Apr-23 08:30N 42°54' E 028°59'611.6
2018-Apr-23 08:01N 42°48' E 029°00'611.3
2018-Apr-23 07:30N 42°42' E 029°01'  
Track history (hours):
 
Tides and Currents Weather Stations Pressure Air Temp Water Temp Dewpoint Dewpoint Depression Visibility Wind Speed Wind Dir Waves Ship Positions

Kazime Ana

Last reported at 2018-Apr-26 21:00 UTC. Time now 2018-Apr-26 21:20 UTC.
Position N 42°46' E 028°56'.

Length 115 m; draft 6.7 m.

Type: Cargo ship. MMSI: 271001019.

Date/timePositionNaut miles runAvg speedWind from/ knotsBaromVisibWave heightAir tempDewpointWater temp
2018-Apr-26 21:00N 42°46' E 028°56'510.1
2018-Apr-26 20:30N 42°51' E 028°55'5 9.9
2018-Apr-26 20:00N 42°55' E 028°55'5 9.8
2018-Apr-26 19:30N 43°00' E 028°54'5 9.6
2018-Apr-26 18:59N 43°05' E 028°54'5 9.7
2018-Apr-26 18:30N 43°10' E 028°53'5 9.9
2018-Apr-26 18:00N 43°15' E 028°53'510.0
2018-Apr-26 17:30N 43°20' E 028°52'510.1
2018-Apr-26 17:00N 43°25' E 028°52'510.1
2018-Apr-26 16:30N 43°30' E 028°51'510.3
2018-Apr-26 16:00N 43°35' E 028°50'510.3
2018-Apr-26 15:31N 43°40' E 028°50'510.4
2018-Apr-26 15:00N 43°45' E 028°49'510.2
2018-Apr-26 14:30N 43°51' E 028°48'510.1
2018-Apr-26 14:00N 43°56' E 028°48'5 9.7
2018-Apr-26 13:30N 44°00' E 028°47'5 9.8
2018-Apr-26 13:00N 44°05' E 028°43'3 6.3
2018-Apr-26 12:30N 44°07' E 028°40'1 2.0
2018-Apr-26 11:58N 44°06' E 028°39'0 0.0
2018-Apr-26 11:28N 44°06' E 028°39'0 0.0
2018-Apr-26 10:58N 44°06' E 028°39'0 0.0
2018-Apr-26 10:28N 44°06' E 028°39'0 0.0
2018-Apr-26 09:58N 44°06' E 028°39'0 0.0
2018-Apr-26 09:28N 44°06' E 028°39'0 0.0
2018-Apr-26 08:58N 44°06' E 028°39'0 0.0
2018-Apr-26 08:28N 44°06' E 028°39'0 0.0
2018-Apr-26 07:58N 44°06' E 028°39'0 0.0
2018-Apr-26 07:28N 44°06' E 028°39'0 0.0
2018-Apr-26 06:58N 44°06' E 028°39'0 0.0
2018-Apr-26 06:28N 44°06' E 028°39'0 0.0
2018-Apr-26 05:58N 44°06' E 028°39'0 0.0
2018-Apr-26 05:28N 44°06' E 028°39'0 0.0
2018-Apr-26 04:58N 44°06' E 028°39'0 0.0
2018-Apr-26 04:28N 44°06' E 028°39'0 0.0
2018-Apr-26 03:58N 44°06' E 028°39'0 0.0
2018-Apr-26 03:28N 44°06' E 028°39'0 0.0
2018-Apr-26 02:58N 44°06' E 028°39'0 0.0
2018-Apr-26 02:28N 44°06' E 028°39'0 0.0
2018-Apr-26 01:58N 44°06' E 028°39'0 0.0
2018-Apr-26 01:28N 44°06' E 028°39'0 0.0
2018-Apr-26 00:58N 44°06' E 028°39'0 0.0
2018-Apr-26 00:28N 44°06' E 028°39'0 0.0
2018-Apr-25 23:58N 44°06' E 028°39'0 0.0
2018-Apr-25 23:28N 44°06' E 028°39'0 0.0
2018-Apr-25 22:58N 44°06' E 028°39'0 0.0
2018-Apr-25 22:28N 44°06' E 028°39'0 0.0
2018-Apr-25 21:58N 44°06' E 028°39'0 0.0
2018-Apr-25 21:28N 44°06' E 028°39'0 0.0
2018-Apr-25 20:58N 44°06' E 028°39'0 0.0
2018-Apr-25 20:28N 44°06' E 028°39'0 0.0
2018-Apr-25 19:58N 44°06' E 028°39'0 0.0
2018-Apr-25 19:28N 44°06' E 028°39'0 0.0
2018-Apr-25 18:58N 44°06' E 028°39'0 0.0
2018-Apr-25 18:25N 44°06' E 028°39'0 0.0
2018-Apr-25 17:58N 44°06' E 028°39'0 0.0
2018-Apr-25 17:28N 44°06' E 028°39'0 0.0
2018-Apr-25 16:58N 44°06' E 028°39'0 0.0
2018-Apr-25 16:28N 44°06' E 028°39'0 0.0
2018-Apr-25 15:58N 44°06' E 028°39'0 0.0
2018-Apr-25 15:28N 44°06' E 028°39'0 0.0
2018-Apr-25 14:58N 44°06' E 028°39'0 0.0
2018-Apr-25 14:28N 44°06' E 028°39'0 0.0
2018-Apr-25 13:58N 44°06' E 028°39'0 0.0
2018-Apr-25 13:28N 44°06' E 028°39'0 0.0
2018-Apr-25 12:58N 44°06' E 028°39'0 0.0
2018-Apr-25 12:28N 44°06' E 028°39'0 0.0
2018-Apr-25 11:58N 44°06' E 028°39'0 0.0
2018-Apr-25 11:28N 44°06' E 028°39'0 0.0
2018-Apr-25 10:58N 44°06' E 028°39'0 0.0
2018-Apr-25 10:28N 44°06' E 028°39'0 0.0
2018-Apr-25 09:58N 44°06' E 028°39'0 0.0
2018-Apr-25 09:28N 44°06' E 028°39'0 0.0
2018-Apr-25 08:58N 44°06' E 028°39'0 0.0
2018-Apr-25 08:28N 44°06' E 028°39'0 0.0
2018-Apr-25 07:58N 44°06' E 028°39'0 0.0
2018-Apr-25 07:28N 44°06' E 028°39'0 0.0
2018-Apr-25 06:58N 44°06' E 028°39'0 0.0
2018-Apr-25 06:28N 44°06' E 028°39'0 0.0
2018-Apr-25 05:58N 44°06' E 028°39'0 0.0
2018-Apr-25 05:28N 44°06' E 028°39'0 0.0
2018-Apr-25 04:58N 44°06' E 028°39'0 0.0
2018-Apr-25 04:28N 44°06' E 028°39'0 0.0
2018-Apr-25 03:58N 44°06' E 028°39'0 0.0
2018-Apr-25 03:28N 44°06' E 028°39'0 0.0
2018-Apr-25 02:58N 44°06' E 028°39'0 0.1
2018-Apr-25 02:28N 44°06' E 028°39'0 0.1
2018-Apr-25 01:58N 44°06' E 028°39'0 0.0
2018-Apr-25 01:28N 44°06' E 028°39'0 0.0
2018-Apr-25 00:58N 44°06' E 028°39'0 0.0
2018-Apr-25 00:28N 44°06' E 028°39'0 0.0
2018-Apr-24 23:58N 44°06' E 028°39'0 0.0
2018-Apr-24 23:28N 44°06' E 028°39'0 0.0
2018-Apr-24 22:58N 44°06' E 028°39'0 0.0
2018-Apr-24 22:28N 44°06' E 028°39'0 0.0
2018-Apr-24 21:55N 44°06' E 028°39'0 0.0
2018-Apr-24 21:28N 44°06' E 028°39'0 0.0
2018-Apr-24 20:58N 44°06' E 028°39'0 0.0
2018-Apr-24 20:28N 44°06' E 028°39'0 0.0
2018-Apr-24 19:58N 44°06' E 028°39'0 0.0
2018-Apr-24 19:28N 44°06' E 028°39'0 0.0
2018-Apr-24 18:58N 44°06' E 028°39'0 0.0
2018-Apr-24 18:28N 44°06' E 028°39'0 0.0
2018-Apr-24 17:58N 44°06' E 028°39'0 0.0
2018-Apr-24 17:28N 44°06' E 028°39'0 0.0
2018-Apr-24 16:58N 44°06' E 028°39'0 0.0
2018-Apr-24 16:28N 44°06' E 028°39'0 0.0
2018-Apr-24 15:58N 44°06' E 028°39'0 0.0
2018-Apr-24 15:28N 44°06' E 028°39'0 0.0
2018-Apr-24 14:58N 44°06' E 028°39'0 0.0
2018-Apr-24 14:28N 44°06' E 028°39'0 0.0
2018-Apr-24 13:58N 44°06' E 028°39'0 0.0
2018-Apr-24 13:28N 44°06' E 028°39'0 0.0
2018-Apr-24 12:58N 44°06' E 028°39'0 0.0
2018-Apr-24 12:28N 44°06' E 028°39'0 0.0
2018-Apr-24 11:58N 44°06' E 028°39'0 0.0
2018-Apr-24 11:28N 44°06' E 028°39'0 0.0
2018-Apr-24 10:58N 44°06' E 028°39'0 0.0
2018-Apr-24 10:28N 44°06' E 028°39'0 0.0
2018-Apr-24 09:58N 44°06' E 028°39'0 0.0
2018-Apr-24 09:28N 44°06' E 028°39'0 0.0
2018-Apr-24 08:58N 44°06' E 028°39'0 0.0
2018-Apr-24 08:28N 44°06' E 028°39'0 0.0
2018-Apr-24 07:58N 44°06' E 028°39'0 0.0
2018-Apr-24 07:28N 44°06' E 028°39'0 0.0
2018-Apr-24 06:58N 44°06' E 028°39'0 0.0
2018-Apr-24 06:28N 44°06' E 028°39'0 0.0
2018-Apr-24 05:58N 44°06' E 028°39'0 0.0
2018-Apr-24 05:30N 44°06' E 028°39'0 0.0
2018-Apr-24 05:01N 44°06' E 028°39'0 0.0
2018-Apr-24 04:31N 44°06' E 028°39'0 0.5
2018-Apr-24 04:00N 44°06' E 028°39'2 3.8
2018-Apr-24 03:30N 44°06' E 028°41'2 3.2
2018-Apr-24 03:00N 44°06' E 028°44'1 2.8
2018-Apr-24 02:31N 44°08' E 028°44'2 3.2
2018-Apr-24 01:58N 44°09' E 028°45'0 0.0
2018-Apr-24 01:28N 44°09' E 028°45'0 0.0
2018-Apr-24 00:58N 44°09' E 028°45'0 0.0
2018-Apr-24 00:28N 44°09' E 028°45'0 0.0
2018-Apr-23 23:58N 44°09' E 028°45'0 0.0
2018-Apr-23 23:28N 44°09' E 028°45'0 0.0
2018-Apr-23 22:58N 44°09' E 028°45'0 0.0
2018-Apr-23 22:28N 44°09' E 028°45'0 0.0
2018-Apr-23 21:58N 44°09' E 028°45'0 0.0
2018-Apr-23 21:28N 44°09' E 028°45'0 0.0
2018-Apr-23 20:58N 44°09' E 028°45'0 0.0
2018-Apr-23 20:28N 44°09' E 028°45'0 0.0
2018-Apr-23 19:58N 44°09' E 028°45'0 0.0
2018-Apr-23 19:28N 44°09' E 028°45'0 0.0
2018-Apr-23 18:58N 44°09' E 028°45'0 0.0
2018-Apr-23 18:28N 44°09' E 028°45'0 0.0
2018-Apr-23 17:58N 44°09' E 028°45'0 0.0
2018-Apr-23 17:28N 44°09' E 028°45'0 0.0
2018-Apr-23 16:58N 44°09' E 028°45'0 0.0
2018-Apr-23 16:28N 44°09' E 028°45'0 0.0
2018-Apr-23 15:58N 44°09' E 028°45'0 0.0
2018-Apr-23 15:31N 44°09' E 028°45'2 4.0
2018-Apr-23 15:01N 44°08' E 028°46'611.6
2018-Apr-23 14:31N 44°02' E 028°49'611.2
2018-Apr-23 14:00N 43°57' E 028°51'611.6
2018-Apr-23 13:30N 43°51' E 028°52'611.8
2018-Apr-23 13:01N 43°45' E 028°53'611.8
2018-Apr-23 12:30N 43°39' E 028°53'611.7
2018-Apr-23 12:01N 43°34' E 028°54'611.7
2018-Apr-23 11:30N 43°28' E 028°55'611.7
2018-Apr-23 11:01N 43°22' E 028°55'611.4
2018-Apr-23 10:30N 43°16' E 028°56'611.2
2018-Apr-23 09:59N 43°10' E 028°57'511.2
2018-Apr-23 09:30N 43°05' E 028°58'611.5
2018-Apr-23 09:00N 42°59' E 028°59'611.6
2018-Apr-23 08:30N 42°54' E 028°59'611.6
2018-Apr-23 08:01N 42°48' E 029°00'611.3
2018-Apr-23 07:30N 42°42' E 029°01'  

Dump ship's entire track history